createdAt,value
2019-03-04T00:00:09.555Z,19.63
2019-03-04T00:02:38.008Z,18.45
2019-03-04T00:05:06.890Z,20.67
2019-03-04T00:07:35.591Z,22.50
2019-03-04T00:10:04.874Z,23.30
2019-03-04T00:12:34.078Z,27.00
2019-03-04T00:15:02.562Z,29.43
2019-03-04T00:17:30.979Z,25.87
2019-03-04T00:19:59.517Z,34.20
2019-03-04T00:22:28.022Z,34.03
2019-03-04T00:24:57.074Z,32.97
2019-03-04T00:27:25.495Z,24.23
2019-03-04T00:29:53.999Z,24.23
2019-03-04T00:32:22.515Z,21.03
2019-03-04T00:34:50.922Z,28.80
2019-03-04T00:37:19.329Z,21.60
2019-03-04T00:39:47.705Z,24.67
2019-03-04T00:42:16.210Z,20.57
2019-03-04T00:44:44.690Z,20.33
2019-03-04T00:47:13.102Z,22.10
2019-03-04T00:49:41.790Z,24.23
2019-03-04T00:52:10.244Z,34.17
2019-03-04T00:54:38.713Z,21.83
2019-03-04T00:57:07.162Z,23.80
2019-03-04T00:59:35.608Z,18.43
2019-03-04T01:02:03.954Z,15.67
2019-03-04T01:04:32.533Z,25.73
2019-03-04T01:07:00.901Z,18.87
2019-03-04T01:09:29.664Z,16.80
2019-03-04T01:11:59.815Z,15.17
2019-03-04T01:14:29.630Z,12.07
2019-03-04T01:16:57.981Z,22.23
2019-03-04T01:19:26.443Z,22.03
2019-03-04T01:21:54.810Z,12.93
2019-03-04T01:24:23.258Z,18.87
2019-03-04T01:26:51.698Z,17.40
2019-03-04T01:29:20.079Z,16.13
2019-03-04T01:31:48.495Z,16.87
2019-03-04T01:34:16.887Z,22.07
2019-03-04T01:36:46.940Z,22.17
2019-03-04T01:39:15.273Z,15.40
2019-03-04T01:41:43.696Z,18.30
2019-03-04T01:44:12.077Z,18.47
2019-03-04T01:46:40.495Z,16.93
2019-03-04T01:49:08.881Z,22.83
2019-03-04T01:51:37.275Z,15.60
2019-03-04T01:54:05.766Z,14.97
2019-03-04T01:56:34.215Z,24.03
2019-03-04T01:59:02.611Z,18.97
2019-03-04T02:01:31.169Z,24.37
2019-03-04T02:03:59.559Z,17.50
2019-03-04T02:06:27.995Z,22.07
2019-03-04T02:08:56.387Z,23.13
2019-03-04T02:11:25.055Z,22.03
2019-03-04T02:13:53.457Z,19.77
2019-03-04T02:16:21.863Z,19.73
2019-03-04T02:18:50.285Z,21.10
2019-03-04T02:21:18.729Z,19.83
2019-03-04T02:23:47.187Z,24.57
2019-03-04T02:26:17.090Z,18.47
2019-03-04T02:28:45.621Z,23.00
2019-03-04T02:31:14.022Z,27.73
2019-03-04T02:33:42.433Z,22.37
2019-03-04T02:36:10.838Z,26.20
2019-03-04T02:38:39.442Z,17.63
2019-03-04T02:41:07.857Z,26.10
2019-03-04T02:43:36.226Z,19.60
2019-03-04T02:46:04.767Z,27.13
2019-03-04T02:48:33.204Z,18.03
2019-03-04T02:51:01.582Z,24.20
2019-03-04T02:53:29.986Z,19.10
2019-03-04T02:55:58.477Z,17.67
2019-03-04T02:58:26.889Z,17.67
2019-03-04T03:00:55.330Z,20.83
2019-03-04T03:03:23.972Z,18.07
2019-03-04T03:05:52.351Z,18.23
2019-03-04T03:08:21.005Z,29.53
2019-03-04T03:10:49.603Z,19.13
2019-03-04T03:13:18.342Z,21.80
2019-03-04T03:15:46.721Z,22.17
2019-03-04T03:18:15.158Z,28.20
2019-03-04T03:20:43.557Z,18.60
2019-03-04T03:23:11.976Z,19.20
2019-03-04T03:25:40.412Z,27.60
2019-03-04T03:28:08.905Z,19.00
2019-03-04T03:30:37.300Z,22.67
2019-03-04T03:33:05.752Z,22.17
2019-03-04T03:35:34.160Z,16.73
2019-03-04T03:38:02.538Z,25.27
2019-03-04T03:40:31.095Z,22.10
2019-03-04T03:42:59.467Z,21.77
2019-03-04T03:45:27.883Z,17.23
2019-03-04T03:47:56.324Z,23.47
2019-03-04T03:50:24.743Z,20.97
2019-03-04T03:52:53.119Z,21.60
2019-03-04T03:55:21.552Z,18.07
2019-03-04T03:57:49.928Z,18.83
2019-03-04T04:00:22.157Z,22.77
2019-03-04T04:02:50.584Z,23.30
2019-03-04T04:05:18.954Z,16.43
2019-03-04T04:07:47.438Z,21.17
2019-03-04T04:10:19.646Z,21.00
2019-03-04T04:12:48.040Z,25.12
2019-03-04T04:15:19.203Z,21.53
2019-03-04T04:17:47.669Z,21.60
2019-03-04T04:20:16.080Z,15.57
2019-03-04T04:22:44.475Z,20.93
2019-03-04T04:25:12.954Z,22.40
2019-03-04T04:27:42.713Z,19.03
2019-03-04T04:30:17.670Z,25.77
2019-03-04T04:32:46.145Z,24.13
2019-03-04T04:35:14.535Z,20.53
2019-03-04T04:37:43.003Z,19.87
2019-03-04T04:40:15.193Z,22.20
2019-03-04T04:42:43.644Z,20.90
2019-03-04T04:45:13.998Z,16.00
2019-03-04T04:47:45.830Z,18.07
2019-03-04T04:50:26.005Z,25.33
2019-03-04T04:52:54.672Z,19.60
2019-03-04T04:55:23.095Z,27.87
2019-03-04T04:57:51.562Z,19.13
2019-03-04T05:00:21.733Z,32.50
2019-03-04T05:02:50.062Z,31.03
2019-03-04T05:05:18.588Z,27.20
2019-03-04T05:07:47.129Z,18.60
2019-03-04T05:10:20.089Z,27.33
2019-03-04T05:12:48.605Z,24.50
2019-03-04T05:15:17.416Z,29.43
2019-03-04T05:17:46.642Z,17.67
2019-03-04T05:20:20.684Z,22.83
2019-03-04T05:22:49.209Z,25.80
2019-03-04T05:25:17.614Z,20.60
2019-03-04T05:27:46.027Z,22.53
2019-03-04T05:30:17.540Z,22.47
2019-03-04T05:32:46.082Z,17.17
2019-03-04T05:35:14.518Z,22.13
2019-03-04T05:37:42.912Z,30.87
2019-03-04T05:40:19.055Z,31.67
2019-03-04T05:42:47.430Z,25.30
2019-03-04T05:45:17.332Z,24.13
2019-03-04T05:47:46.608Z,34.93
2019-03-04T05:50:17.353Z,22.93
2019-03-04T05:52:45.725Z,21.63
2019-03-04T05:55:15.413Z,28.03
2019-03-04T05:57:43.815Z,21.50
2019-03-04T06:00:21.539Z,22.70
2019-03-04T06:02:51.878Z,29.77
2019-03-04T06:05:20.376Z,20.97
2019-03-04T06:07:56.279Z,19.87
2019-03-04T06:10:24.697Z,18.50
2019-03-04T06:12:53.182Z,24.37
2019-03-04T06:15:22.065Z,24.43
2019-03-04T06:17:50.687Z,23.70
2019-03-04T06:20:20.079Z,20.13
2019-03-04T06:22:48.667Z,27.70
2019-03-04T06:25:19.921Z,22.57
2019-03-04T06:27:49.261Z,24.13
2019-03-04T06:30:20.480Z,23.10
2019-03-04T06:32:48.938Z,23.13
2019-03-04T06:35:17.281Z,23.03
2019-03-04T06:37:45.706Z,25.03
2019-03-04T06:40:15.963Z,20.67
2019-03-04T06:42:44.339Z,21.70
2019-03-04T06:45:14.942Z,24.90
2019-03-04T06:47:43.488Z,28.27
2019-03-04T06:50:46.359Z,33.43
2019-03-04T06:53:20.639Z,23.35
2019-03-04T06:56:12.010Z,24.77
2019-03-04T06:59:01.789Z,27.93
2019-03-04T07:01:33.480Z,30.70
2019-03-04T07:04:05.114Z,26.53
2019-03-04T07:06:33.497Z,27.63
2019-03-04T07:09:07.525Z,29.20
2019-03-04T07:11:35.958Z,24.53
2019-03-04T07:14:04.722Z,29.80
2019-03-04T07:16:33.171Z,28.47
2019-03-04T07:19:02.959Z,27.73
2019-03-04T07:21:31.553Z,27.33
2019-03-04T07:24:00.044Z,23.00
2019-03-04T07:26:28.801Z,28.97
2019-03-04T07:28:57.182Z,28.90
2019-03-04T07:31:25.919Z,29.07
2019-03-04T07:33:54.222Z,26.03
2019-03-04T07:36:22.861Z,26.07
2019-03-04T07:38:56.838Z,25.27
2019-03-04T07:41:26.155Z,26.23
2019-03-04T07:43:54.584Z,41.53
2019-03-04T07:46:23.082Z,29.27
2019-03-04T07:48:54.409Z,34.53
2019-03-04T07:51:22.966Z,21.40
2019-03-04T07:53:52.762Z,32.40
2019-03-04T07:56:21.133Z,25.40
2019-03-04T07:58:49.598Z,28.23
2019-03-04T08:01:18.185Z,32.37
2019-03-04T08:03:46.663Z,27.70
2019-03-04T08:06:15.314Z,37.93
2019-03-04T08:09:04.742Z,40.80
2019-03-04T08:12:05.310Z,30.10
2019-03-04T08:14:33.790Z,34.27
2019-03-04T08:17:02.243Z,30.03
2019-03-04T08:19:30.837Z,40.20
2019-03-04T08:21:59.464Z,31.63
2019-03-04T08:24:28.377Z,28.80
2019-03-04T08:26:59.684Z,33.30
2019-03-04T08:29:28.252Z,31.57
2019-03-04T08:31:56.726Z,28.87
2019-03-04T08:34:30.945Z,33.00
2019-03-04T08:36:55.552Z,29.00
2019-03-04T08:39:24.071Z,29.00
2019-03-04T08:41:52.626Z,31.57
2019-03-04T08:44:21.089Z,25.57
2019-03-04T08:46:49.734Z,32.37
2019-03-04T08:49:18.166Z,35.37
2019-03-04T08:51:46.812Z,27.13
2019-03-04T08:54:15.258Z,31.80
2019-03-04T08:56:45.539Z,35.30
2019-03-04T08:59:13.993Z,37.80
2019-03-04T09:01:42.723Z,36.47
2019-03-04T09:04:11.153Z,29.37
2019-03-04T09:06:39.827Z,30.50
2019-03-04T09:09:08.420Z,34.27
2019-03-04T09:11:36.957Z,33.60
2019-03-04T09:14:05.651Z,27.10
2019-03-04T09:16:34.156Z,37.10
2019-03-04T09:19:02.932Z,33.03
2019-03-04T09:21:31.513Z,31.60
2019-03-04T09:24:00.052Z,34.23
2019-03-04T09:26:28.706Z,28.47
2019-03-04T09:28:57.332Z,27.67
2019-03-04T09:31:27.434Z,33.53
2019-03-04T09:33:56.039Z,28.77
2019-03-04T09:36:24.583Z,22.70
2019-03-04T09:38:53.047Z,30.07
2019-03-04T09:41:21.473Z,25.27
2019-03-04T09:43:49.885Z,27.37
2019-03-04T09:46:18.390Z,24.57
2019-03-04T09:48:46.869Z,30.00
2019-03-04T09:51:24.015Z,25.07
2019-03-04T09:53:45.586Z,25.60
2019-03-04T09:56:14.577Z,27.20
2019-03-04T09:58:45.201Z,27.67
2019-03-04T10:01:25.899Z,25.67
2019-03-04T10:04:00.329Z,23.17
2019-03-04T10:06:34.650Z,23.80
2019-03-04T10:09:28.681Z,30.90
2019-03-04T10:12:12.360Z,27.30
2019-03-04T10:14:46.793Z,23.90
2019-03-04T10:17:30.410Z,26.20
2019-03-04T10:20:17.216Z,31.90
2019-03-04T10:23:22.315Z,27.90
2019-03-04T10:26:05.751Z,25.37
2019-03-04T10:28:58.713Z,27.37
2019-03-04T10:31:39.350Z,34.38
2019-03-04T10:34:26.082Z,31.57
2019-03-04T10:37:07.255Z,34.00
2019-03-04T10:39:41.842Z,22.53
2019-03-04T10:42:36.545Z,25.17
2019-03-04T10:45:20.347Z,18.40
2019-03-04T10:47:48.753Z,27.87
2019-03-04T10:50:17.315Z,20.30
2019-03-04T10:52:45.775Z,24.57
2019-03-04T10:55:14.418Z,25.53
2019-03-04T10:57:43.161Z,24.00
2019-03-04T11:00:19.635Z,20.67
2019-03-04T11:02:48.255Z,16.73
2019-03-04T11:05:16.929Z,21.20
2019-03-04T11:07:45.859Z,19.07
2019-03-04T11:10:14.288Z,16.60
2019-03-04T11:12:45.328Z,22.23
2019-03-04T11:15:22.761Z,24.50
2019-03-04T11:17:54.565Z,19.13
2019-03-04T11:20:23.303Z,20.02
2019-03-04T11:22:52.226Z,15.40
2019-03-04T11:25:20.746Z,14.60
2019-03-04T11:27:50.770Z,15.77
2019-03-04T11:30:25.574Z,20.47
2019-03-04T11:32:54.127Z,16.80
2019-03-04T11:35:22.751Z,14.67
2019-03-04T11:37:51.493Z,22.13
2019-03-04T11:40:35.829Z,17.17
2019-03-04T11:43:04.643Z,16.23
2019-03-04T11:45:33.242Z,17.00
2019-03-04T11:48:01.923Z,15.60
2019-03-04T11:50:30.653Z,17.53
2019-03-04T11:52:59.063Z,16.77
2019-03-04T11:55:32.726Z,20.83
2019-03-04T11:58:01.327Z,19.43
2019-03-04T12:00:32.583Z,19.93
2019-03-04T12:03:01.243Z,19.50
2019-03-04T12:05:29.789Z,20.53
2019-03-04T12:07:58.319Z,24.47
2019-03-04T12:10:27.016Z,19.57
2019-03-04T12:12:55.797Z,17.63
2019-03-04T12:15:24.596Z,22.33
2019-03-04T12:17:52.954Z,22.13
2019-03-04T12:20:21.482Z,18.60
2019-03-04T12:22:50.092Z,14.50
2019-03-04T12:25:20.629Z,19.17
2019-03-04T12:27:49.362Z,19.13
2019-03-04T12:30:19.830Z,24.63
2019-03-04T12:32:48.430Z,62.70
2019-03-04T12:35:21.398Z,38.93
2019-03-04T12:37:50.015Z,22.57
2019-03-04T12:40:20.269Z,16.83
2019-03-04T12:42:48.893Z,19.60
2019-03-04T12:45:19.728Z,16.47
2019-03-04T12:47:48.246Z,15.67
2019-03-04T12:50:29.217Z,15.53
2019-03-04T12:52:58.758Z,11.53
2019-03-04T12:55:28.464Z,17.60
2019-03-04T12:57:57.028Z,11.30
2019-03-04T13:00:27.398Z,13.60
2019-03-04T13:02:58.199Z,20.60
2019-03-04T13:05:27.015Z,12.53
2019-03-04T13:07:55.533Z,11.97
2019-03-04T13:10:24.012Z,7.40
2019-03-04T13:12:54.200Z,13.47
2019-03-04T13:15:31.328Z,10.57
2019-03-04T13:17:59.904Z,8.33
2019-03-04T13:20:31.428Z,12.30
2019-03-04T13:22:59.879Z,7.70
2019-03-04T13:25:28.228Z,9.57
2019-03-04T13:27:56.690Z,14.40
2019-03-04T13:30:27.575Z,11.10
2019-03-04T13:32:56.595Z,12.10
2019-03-04T13:35:30.936Z,10.67
2019-03-04T13:37:59.438Z,9.70
2019-03-04T13:40:29.983Z,11.17
2019-03-04T13:42:58.458Z,12.10
2019-03-04T13:45:28.142Z,13.60
2019-03-04T13:47:56.668Z,13.77
2019-03-04T13:50:30.054Z,18.30
2019-03-04T13:52:58.669Z,15.13
2019-03-04T13:55:27.622Z,13.67
2019-03-04T13:57:56.289Z,11.30
2019-03-04T14:00:27.569Z,9.97
2019-03-04T14:02:56.172Z,12.93
2019-03-04T14:05:24.747Z,11.17
2019-03-04T14:07:53.135Z,13.37
2019-03-04T14:10:26.044Z,10.93
2019-03-04T14:12:54.530Z,11.57
2019-03-04T14:15:26.477Z,10.80
2019-03-04T14:17:54.879Z,13.55
2019-03-04T14:20:23.338Z,11.80
2019-03-04T14:22:57.714Z,17.37
2019-03-04T14:25:21.793Z,11.67
2019-03-04T14:27:50.284Z,12.93
2019-03-04T14:30:22.177Z,19.97
2019-03-04T14:32:50.633Z,18.98
2019-03-04T14:35:19.129Z,16.40
2019-03-04T14:37:47.541Z,12.50
2019-03-04T14:40:20.354Z,16.43
2019-03-04T14:45:22.253Z,17.30
2019-03-04T14:47:50.641Z,23.13
2019-03-04T14:50:20.314Z,18.80
2019-03-04T14:52:48.717Z,15.93
2019-03-04T14:55:21.960Z,18.40
2019-03-04T14:57:50.356Z,22.70
2019-03-04T15:00:44.423Z,19.27
2019-03-04T15:03:21.035Z,13.47
2019-03-04T15:05:42.928Z,16.43
2019-03-04T15:08:11.383Z,14.93
2019-03-04T15:10:39.789Z,20.40
2019-03-04T15:13:09.819Z,18.77
2019-03-04T15:15:39.893Z,25.60
2019-03-04T15:18:08.606Z,20.97
2019-03-04T15:20:37.031Z,37.13
2019-03-04T15:23:05.405Z,17.93
2019-03-04T15:25:41.496Z,25.37
2019-03-04T15:28:20.300Z,16.83
2019-03-04T15:30:51.991Z,14.30
2019-03-04T15:33:20.517Z,12.13
2019-03-04T15:35:49.295Z,11.23
2019-03-04T15:38:17.991Z,18.10
2019-03-04T15:40:46.727Z,15.53
2019-03-04T15:43:16.431Z,15.03
2019-03-04T15:45:46.586Z,16.00
2019-03-04T15:48:15.934Z,11.97
2019-03-04T15:50:44.392Z,18.03
2019-03-04T15:53:13.195Z,16.37
2019-03-04T15:55:45.597Z,12.87
2019-03-04T15:58:11.658Z,17.67
2019-03-04T16:00:40.123Z,13.47
2019-03-04T16:03:08.510Z,12.30
2019-03-04T16:05:36.939Z,15.60
2019-03-04T16:08:07.871Z,13.03
2019-03-04T16:10:39.415Z,16.70
2019-03-04T16:13:08.560Z,16.30
2019-03-04T16:15:40.138Z,16.10
2019-03-04T16:18:08.619Z,22.73
2019-03-04T16:20:37.333Z,22.33
2019-03-04T16:23:05.719Z,25.13
2019-03-04T16:25:34.130Z,30.93
2019-03-04T16:28:05.625Z,26.87
2019-03-04T16:30:34.157Z,28.00
2019-03-04T16:33:02.641Z,27.40
2019-03-04T16:35:31.123Z,31.67
2019-03-04T16:37:59.563Z,39.37
2019-03-04T16:40:28.654Z,35.23
2019-03-04T16:42:57.023Z,31.73
2019-03-04T16:45:25.468Z,30.23
2019-03-04T16:47:53.958Z,27.60
2019-03-04T16:50:42.558Z,31.77
2019-03-04T16:53:14.382Z,30.77
2019-03-04T16:55:42.884Z,29.77
2019-03-04T16:58:11.353Z,35.67
2019-03-04T17:00:39.763Z,38.97
2019-03-04T17:03:08.249Z,35.77
2019-03-04T17:05:36.656Z,31.83
2019-03-04T17:08:05.081Z,28.00
2019-03-04T17:10:33.646Z,31.47
2019-03-04T17:13:02.197Z,44.17
2019-03-04T17:15:32.353Z,39.30
2019-03-04T17:18:00.695Z,37.20
2019-03-04T17:20:29.197Z,37.30
2019-03-04T17:22:57.567Z,35.73
2019-03-04T17:25:25.953Z,34.60
2019-03-04T17:27:54.467Z,36.20
2019-03-04T17:30:24.286Z,36.00
2019-03-04T17:32:54.441Z,56.67
2019-03-04T17:35:24.029Z,30.67
2019-03-04T17:37:52.482Z,37.33
2019-03-04T17:40:28.465Z,27.03
2019-03-04T17:42:58.027Z,24.77
2019-03-04T17:45:29.748Z,25.70
2019-03-04T17:47:58.173Z,25.77
2019-03-04T17:50:38.111Z,23.17
2019-03-04T17:53:08.475Z,21.10
2019-03-04T17:55:36.927Z,22.00
2019-03-04T17:58:07.041Z,23.30
2019-03-04T18:00:36.861Z,25.27
2019-03-04T18:03:05.662Z,26.30
2019-03-04T18:05:34.236Z,26.00
2019-03-04T18:08:02.670Z,25.43
2019-03-04T18:10:31.326Z,27.27
2019-03-04T18:13:02.221Z,25.37
2019-03-04T18:15:39.540Z,23.80
2019-03-04T18:18:08.996Z,21.70
2019-03-04T18:20:37.475Z,19.17
2019-03-04T18:23:05.883Z,18.53
2019-03-04T18:25:43.187Z,17.07
2019-03-04T18:28:40.647Z,16.40
2019-03-04T18:31:20.989Z,18.03
2019-03-04T18:34:24.210Z,16.10
2019-03-04T18:36:58.534Z,16.75
2019-03-04T18:39:30.278Z,18.03
2019-03-04T18:42:23.912Z,18.10
2019-03-04T18:45:16.658Z,19.10
2019-03-04T18:48:15.675Z,19.90
2019-03-04T18:50:45.819Z,21.30
2019-03-04T18:53:14.173Z,19.33
2019-03-04T18:55:42.620Z,23.20
2019-03-04T18:58:11.065Z,24.30
2019-03-04T19:00:39.520Z,22.13
2019-03-04T19:03:07.890Z,22.50
2019-03-04T19:05:36.390Z,26.07
2019-03-04T19:08:04.794Z,27.63
2019-03-04T19:10:33.459Z,27.37
2019-03-04T19:13:01.932Z,24.20
2019-03-04T19:15:30.318Z,35.30
2019-03-04T19:17:58.797Z,36.13
2019-03-04T19:20:27.643Z,32.40
2019-03-04T19:22:56.321Z,41.43
2019-03-04T19:25:24.816Z,38.03
2019-03-04T19:27:53.258Z,36.33
2019-03-04T19:30:21.646Z,39.17
2019-03-04T19:32:50.108Z,40.10
2019-03-04T19:35:18.524Z,44.57
2019-03-04T19:37:47.198Z,38.70
2019-03-04T19:40:16.888Z,39.13
2019-03-04T19:42:45.405Z,35.50
2019-03-04T19:45:18.184Z,34.57
2019-03-04T19:50:15.934Z,39.47
2019-03-04T19:52:44.370Z,41.20
2019-03-04T19:55:15.383Z,35.47
2019-03-04T19:57:43.879Z,36.63
2019-03-04T20:00:27.160Z,36.17
2019-03-04T20:02:55.587Z,29.87
2019-03-04T20:05:24.313Z,31.37
2019-03-04T20:07:52.799Z,28.67
2019-03-04T20:10:21.237Z,25.60
2019-03-04T20:12:50.271Z,26.40
2019-03-04T20:15:24.342Z,30.50
2019-03-04T20:17:52.725Z,27.47
2019-03-04T20:20:21.150Z,28.87
2019-03-04T20:22:49.585Z,30.33
2019-03-04T20:25:18.909Z,25.40
2019-03-04T20:27:47.458Z,25.13
2019-03-04T20:30:18.889Z,23.17
2019-03-04T20:32:47.289Z,28.63
2019-03-04T20:35:17.342Z,27.23
2019-03-04T20:38:01.196Z,25.40
2019-03-04T20:40:29.869Z,17.97
2019-03-04T20:42:58.349Z,17.63
2019-03-04T20:45:26.759Z,16.90
2019-03-04T20:47:55.492Z,16.83
2019-03-04T20:50:25.107Z,23.47
2019-03-04T20:52:53.570Z,25.07
2019-03-04T20:55:22.581Z,24.40
2019-03-04T20:57:51.017Z,18.57
2019-03-04T21:00:24.345Z,22.23
2019-03-04T21:02:52.751Z,12.87
2019-03-04T21:05:21.211Z,11.60
2019-03-04T21:07:49.891Z,14.37
2019-03-04T21:10:18.386Z,13.17
2019-03-04T21:12:47.657Z,11.00
2019-03-04T21:15:18.386Z,8.63
2019-03-04T21:17:47.207Z,7.80
2019-03-04T21:20:19.747Z,8.03
2019-03-04T21:22:48.210Z,7.37
2019-03-04T21:25:43.858Z,7.30
2019-03-04T21:28:36.438Z,8.90
2019-03-04T21:31:10.884Z,7.00
2019-03-04T21:34:03.654Z,6.90
2019-03-04T21:37:08.554Z,7.33
2019-03-04T21:39:48.183Z,9.13
2019-03-04T21:42:21.775Z,11.00
2019-03-04T21:45:21.469Z,16.27
2019-03-04T21:47:55.637Z,15.10
2019-03-04T21:50:42.367Z,7.10
2019-03-04T21:53:14.093Z,9.63
2019-03-04T21:55:58.103Z,6.90
2019-03-04T21:58:26.493Z,7.17
2019-03-04T22:00:58.393Z,7.50
2019-03-04T22:03:26.910Z,6.80
2019-03-04T22:05:55.265Z,7.27
2019-03-04T22:08:23.793Z,7.47
2019-03-04T22:10:52.218Z,5.10
2019-03-04T22:13:20.630Z,5.17
2019-03-04T22:15:49.029Z,5.33
2019-03-04T22:18:17.658Z,8.10
2019-03-04T22:20:46.331Z,4.70
2019-03-04T22:23:15.712Z,4.47
2019-03-04T22:25:44.113Z,3.13
2019-03-04T22:28:12.561Z,4.53
2019-03-04T22:30:40.950Z,4.20
2019-03-04T22:33:09.375Z,4.93
2019-03-04T22:35:37.763Z,5.57
2019-03-04T22:38:06.169Z,4.63
2019-03-04T22:40:34.831Z,7.77
2019-03-04T22:43:03.276Z,7.40
2019-03-04T22:45:31.605Z,4.17
2019-03-04T22:48:00.072Z,4.63
2019-03-04T22:50:28.460Z,4.10
2019-03-04T22:52:56.862Z,7.03
2019-03-04T22:55:37.092Z,4.53
2019-03-04T22:58:05.999Z,7.23
2019-03-04T23:00:53.913Z,4.80
2019-03-04T23:03:24.014Z,5.00
2019-03-04T23:05:58.198Z,4.93
2019-03-04T23:08:26.702Z,4.27
2019-03-04T23:10:55.209Z,8.43
2019-03-04T23:13:33.168Z,3.97
2019-03-04T23:16:02.411Z,3.17
2019-03-04T23:18:30.919Z,4.53
2019-03-04T23:20:59.334Z,5.60
2019-03-04T23:23:27.743Z,4.70
2019-03-04T23:25:56.459Z,6.27
2019-03-04T23:28:25.199Z,3.00
2019-03-04T23:30:53.574Z,5.53
2019-03-04T23:33:21.996Z,2.73
2019-03-04T23:35:50.402Z,3.47
2019-03-04T23:38:18.811Z,4.77
2019-03-04T23:40:47.337Z,5.10
2019-03-04T23:43:15.721Z,5.53
2019-03-04T23:45:44.188Z,4.10
2019-03-04T23:48:12.842Z,3.23
2019-03-04T23:50:41.238Z,3.57
2019-03-04T23:53:09.638Z,4.43
2019-03-04T23:55:38.106Z,5.37
2019-03-04T23:58:06.510Z,3.97
